createdAt,value
2023-01-18T01:45:14.829Z,7.48
2023-01-18T01:47:46.849Z,7.47
2023-01-18T01:50:21.307Z,7.39
2023-01-18T01:52:50.371Z,7.36
2023-01-18T01:55:38.645Z,7.39
2023-01-18T01:58:14.572Z,7.52
2023-01-18T02:00:43.837Z,7.39
2023-01-18T02:03:20.096Z,7.46
2023-01-18T02:06:07.507Z,7.58
2023-01-18T02:08:36.496Z,7.59
2023-01-18T02:11:07.392Z,7.51
2023-01-18T02:13:36.239Z,7.56
2023-01-18T02:16:19.812Z,7.59
2023-01-18T02:19:23.369Z,7.54
2023-01-18T02:22:22.626Z,7.64
2023-01-18T02:25:29.068Z,7.62
2023-01-18T02:28:20.039Z,7.67
2023-01-18T02:31:05.430Z,7.63
2023-01-18T02:33:41.548Z,7.65
2023-01-18T02:36:16.420Z,7.72
2023-01-18T02:38:49.648Z,7.70
2023-01-18T02:42:05.434Z,7.68
2023-01-18T02:45:06.290Z,7.71
2023-01-18T02:47:37.474Z,7.72
2023-01-18T02:50:06.051Z,7.73
2023-01-18T02:53:06.132Z,7.78
2023-01-18T02:55:47.300Z,7.71
2023-01-18T02:58:23.918Z,7.67
2023-01-18T03:01:03.670Z,7.79
2023-01-18T03:03:32.286Z,7.83
2023-01-18T03:06:03.630Z,7.88
2023-01-18T03:08:31.650Z,7.89
2023-01-18T03:11:19.041Z,7.79
2023-01-18T03:14:12.819Z,7.88
2023-01-18T03:17:03.836Z,7.77
2023-01-18T03:20:06.279Z,7.90
2023-01-18T03:23:03.390Z,7.91
2023-01-18T03:25:39.245Z,7.93
2023-01-18T03:28:46.591Z,7.79
2023-01-18T03:31:59.316Z,7.86
2023-01-18T03:35:02.263Z,7.70
2023-01-18T03:37:38.462Z,7.61
2023-01-18T03:40:18.451Z,7.70
2023-01-18T03:43:05.467Z,7.51
2023-01-18T03:45:44.130Z,7.48
2023-01-18T03:48:27.035Z,7.56
2023-01-18T03:51:11.336Z,7.50
2023-01-18T03:54:15.779Z,7.47
2023-01-18T03:57:00.464Z,7.48
2023-01-18T03:59:35.348Z,7.49
2023-01-18T04:02:06.989Z,7.41
2023-01-18T04:04:36.182Z,7.46
2023-01-18T04:07:06.296Z,7.48
2023-01-18T04:09:37.751Z,7.55
2023-01-18T04:12:07.261Z,7.52
2023-01-18T04:14:35.727Z,7.58
2023-01-18T04:17:03.680Z,7.47
2023-01-18T04:19:32.785Z,7.46
2023-01-18T04:22:01.913Z,7.52
2023-01-18T04:24:30.843Z,7.50
2023-01-18T04:27:00.434Z,7.56
2023-01-18T04:29:28.838Z,7.50
2023-01-18T04:31:56.796Z,7.65
2023-01-18T04:34:26.192Z,7.62
2023-01-18T04:36:56.342Z,7.71
2023-01-18T04:39:24.766Z,7.65
2023-01-18T04:41:53.982Z,7.66
2023-01-18T04:44:23.822Z,7.73
2023-01-18T04:46:52.011Z,7.55
2023-01-18T04:49:21.184Z,7.78
2023-01-18T04:51:52.711Z,7.68
2023-01-18T04:54:21.258Z,7.79
2023-01-18T04:56:49.724Z,7.90
2023-01-18T04:59:19.181Z,7.86
2023-01-18T05:01:47.955Z,7.71
2023-01-18T05:04:19.161Z,7.74
2023-01-18T05:06:52.142Z,7.79
2023-01-18T05:09:22.154Z,7.94
2023-01-18T05:11:53.271Z,7.70
2023-01-18T05:14:23.375Z,7.79
2023-01-18T05:16:53.240Z,7.80
2023-01-18T05:19:22.661Z,7.81
2023-01-18T05:21:52.074Z,7.91
2023-01-18T05:24:22.460Z,7.70
2023-01-18T05:26:53.013Z,7.85
2023-01-18T05:29:21.788Z,7.76
2023-01-18T05:31:53.133Z,7.62
2023-01-18T05:34:24.343Z,7.86
2023-01-18T05:39:38.474Z,7.84
2023-01-18T05:42:09.212Z,7.86
2023-01-18T05:44:39.953Z,7.71
2023-01-18T05:47:08.865Z,7.58
2023-01-18T05:49:38.734Z,7.79
2023-01-18T05:52:10.836Z,7.69
2023-01-18T05:54:40.152Z,7.68
2023-01-18T05:57:09.002Z,7.79
2023-01-18T05:59:39.778Z,7.71
2023-01-18T06:02:09.553Z,7.79
2023-01-18T06:04:40.999Z,7.67
2023-01-18T06:07:12.370Z,7.66
2023-01-18T06:09:43.155Z,7.66
2023-01-18T06:12:12.504Z,7.60
2023-01-18T06:14:42.955Z,7.48
2023-01-18T06:19:58.431Z,7.54
2023-01-18T06:22:28.138Z,7.68
2023-01-18T06:24:59.811Z,7.72
2023-01-18T06:27:53.790Z,7.65
2023-01-18T06:30:30.520Z,7.60
2023-01-18T06:33:12.526Z,7.53
2023-01-18T06:35:44.097Z,7.46
2023-01-18T06:38:23.442Z,7.49
2023-01-18T06:40:55.990Z,7.49
2023-01-18T06:43:25.078Z,7.39
2023-01-18T06:45:58.948Z,7.45
2023-01-18T06:48:31.424Z,7.54
2023-01-18T06:51:09.300Z,7.58
2023-01-18T06:53:39.681Z,7.52
2023-01-18T06:56:10.633Z,7.64
2023-01-18T06:58:39.681Z,7.82
2023-01-18T07:01:09.137Z,7.74
2023-01-18T07:03:39.278Z,7.79
2023-01-18T07:06:08.197Z,7.90
2023-01-18T07:08:36.982Z,7.87
2023-01-18T07:11:08.548Z,7.76
2023-01-18T07:13:44.167Z,7.82
2023-01-18T07:16:24.357Z,7.73
2023-01-18T07:18:54.114Z,7.60
2023-01-18T07:21:30.000Z,7.65
2023-01-18T07:24:09.091Z,7.56
2023-01-18T07:26:40.460Z,7.47
2023-01-18T07:29:09.696Z,7.56
2023-01-18T07:31:39.059Z,7.55
2023-01-18T07:34:18.715Z,7.58
2023-01-18T07:36:57.308Z,7.52
2023-01-18T07:39:27.541Z,7.50
2023-01-18T07:42:03.803Z,7.68
2023-01-18T07:44:33.777Z,7.57
2023-01-18T07:47:05.047Z,7.54
2023-01-18T07:49:36.830Z,7.62
2023-01-18T07:52:06.867Z,7.80
2023-01-18T13:15:36.625Z,7.73
2023-01-18T13:21:49.866Z,7.71
2023-01-18T13:24:49.580Z,7.74
2023-01-18T13:30:19.844Z,7.74
2023-01-18T13:32:52.282Z,7.67
2023-01-18T13:36:08.767Z,7.65
2023-01-18T13:38:52.041Z,7.34
2023-01-18T13:41:25.107Z,7.54
2023-01-18T13:44:29.152Z,7.39
2023-01-18T13:47:01.042Z,7.44
2023-01-18T13:49:46.640Z,7.49
2023-01-18T13:52:46.461Z,7.51
2023-01-18T13:55:34.893Z,7.45
2023-01-18T13:58:04.544Z,7.46
2023-01-18T14:00:38.471Z,7.26
2023-01-18T14:03:20.976Z,7.29
2023-01-18T14:05:59.469Z,7.28
2023-01-18T14:08:35.540Z,7.40
2023-01-18T14:11:28.403Z,7.53
2023-01-18T14:14:25.401Z,7.30
2023-01-18T14:16:58.453Z,7.34
2023-01-18T14:19:37.230Z,7.39
2023-01-18T14:22:38.389Z,7.31
2023-01-18T14:25:19.464Z,7.43
2023-01-18T14:28:17.603Z,7.43
2023-01-18T14:30:51.149Z,7.45
2023-01-18T14:33:34.924Z,7.36
2023-01-18T14:36:25.985Z,7.48
2023-01-18T14:39:13.627Z,7.28
2023-01-18T14:41:50.801Z,7.51
2023-01-18T14:44:56.960Z,7.43
2023-01-18T14:47:32.758Z,7.28
2023-01-18T14:50:13.275Z,7.38
2023-01-18T14:52:43.487Z,7.40
2023-01-18T14:55:29.830Z,7.33
2023-01-18T14:58:14.006Z,7.23
2023-01-18T15:00:48.428Z,7.34
2023-01-18T15:03:49.722Z,7.14
2023-01-18T15:06:25.380Z,7.27
2023-01-18T15:08:55.232Z,7.34
2023-01-18T15:11:27.048Z,7.16
2023-01-18T15:14:01.048Z,7.10
2023-01-18T15:16:31.737Z,7.06
2023-01-18T15:19:05.782Z,7.02
2023-01-18T15:21:36.482Z,7.05
2023-01-18T15:24:22.253Z,7.14
2023-01-18T15:27:03.145Z,7.07
2023-01-18T15:29:36.773Z,7.23
2023-01-18T15:32:22.916Z,7.16
2023-01-18T15:34:55.194Z,7.01
2023-01-18T15:37:34.535Z,7.01
2023-01-18T15:40:31.348Z,7.04
2023-01-18T15:43:27.346Z,7.10
2023-01-18T15:46:11.204Z,7.21
2023-01-18T15:49:03.321Z,7.07
2023-01-18T15:52:00.103Z,7.07
2023-01-18T15:54:41.619Z,7.00
2023-01-18T15:57:22.819Z,6.87
2023-01-18T15:59:53.680Z,7.01
2023-01-18T16:02:24.194Z,7.01
2023-01-18T16:05:32.410Z,7.01
2023-01-18T16:08:21.509Z,7.02
2023-01-18T16:10:56.808Z,7.00
2023-01-18T16:13:37.762Z,7.07
2023-01-18T16:16:38.263Z,7.09
2023-01-18T16:19:32.115Z,7.16
2023-01-18T16:22:06.558Z,7.16
2023-01-18T16:25:25.288Z,7.15
2023-01-18T16:28:12.654Z,7.16
2023-01-18T16:30:54.623Z,7.13
2023-01-18T19:47:42.236Z,6.90
2023-01-18T19:50:11.376Z,6.98
2023-01-18T19:52:40.403Z,6.93
2023-01-18T19:55:10.151Z,6.96
2023-01-18T19:57:40.257Z,7.02
2023-01-18T20:00:14.147Z,7.06
2023-01-18T20:02:51.734Z,7.06
2023-01-18T20:05:21.858Z,7.16
2023-01-18T20:07:56.947Z,7.24
2023-01-18T20:10:27.915Z,7.22
2023-01-18T20:12:59.667Z,7.23
2023-01-18T20:15:29.123Z,7.29
2023-01-18T20:18:01.365Z,7.30
2023-01-18T20:20:34.031Z,7.33
2023-01-18T20:23:06.337Z,7.39
2023-01-18T20:25:37.673Z,7.41
2023-01-18T20:28:10.879Z,7.48
2023-01-18T20:30:47.343Z,7.42
2023-01-18T20:33:17.308Z,7.32
2023-01-18T20:35:47.346Z,7.39
2023-01-18T20:38:24.127Z,7.29
2023-01-18T20:40:54.762Z,7.28
2023-01-18T20:43:22.527Z,7.31
2023-01-18T20:46:12.533Z,7.30
2023-01-18T20:48:43.135Z,7.26
2023-01-18T20:51:15.010Z,7.16
2023-01-18T20:53:43.655Z,7.12
2023-01-18T20:56:28.202Z,7.03
2023-01-18T20:58:58.490Z,7.10
2023-01-18T21:01:33.213Z,7.03
2023-01-18T21:04:04.607Z,6.97
2023-01-18T21:06:34.157Z,6.89
2023-01-18T21:09:03.065Z,6.92
2023-01-18T21:11:33.078Z,6.87
2023-01-18T21:14:04.358Z,6.94
2023-01-18T21:16:35.577Z,6.91
2023-01-18T21:19:05.166Z,6.91
2023-01-18T21:21:34.362Z,6.95
2023-01-18T21:24:03.407Z,6.94
2023-01-18T21:26:32.267Z,6.95
2023-01-18T21:29:03.427Z,6.94
2023-01-18T21:31:32.229Z,7.01
2023-01-18T21:34:00.476Z,7.10
2023-01-18T21:36:29.134Z,7.04
2023-01-18T21:39:00.187Z,7.14
2023-01-18T21:41:52.625Z,7.03
2023-01-18T21:44:42.312Z,7.09
2023-01-18T21:47:13.207Z,7.22
2023-01-18T21:50:21.713Z,7.26
2023-01-18T21:53:09.711Z,7.26
2023-01-18T21:55:40.365Z,7.28
2023-01-18T21:58:31.586Z,7.33
2023-01-18T22:01:00.844Z,7.26
2023-01-18T22:03:29.097Z,7.24
2023-01-18T22:06:00.980Z,7.27
2023-01-18T22:08:31.484Z,7.21
2023-01-18T22:11:03.803Z,7.21
2023-01-18T22:13:34.947Z,7.20
2023-01-18T22:16:05.035Z,7.33
2023-01-18T22:18:35.066Z,7.29
2023-01-18T22:21:03.260Z,7.23
2023-01-18T22:23:32.146Z,7.33
2023-01-18T22:26:01.761Z,7.28
2023-01-18T22:28:30.196Z,7.32
2023-01-18T22:31:06.555Z,7.33
2023-01-18T22:33:46.274Z,7.30
2023-01-18T22:36:17.937Z,7.32
2023-01-18T22:38:52.844Z,7.25
2023-01-18T22:41:45.602Z,7.31
2023-01-18T22:44:34.218Z,7.27
2023-01-18T22:47:02.939Z,7.26
2023-01-18T22:49:46.318Z,7.21
2023-01-18T22:55:17.599Z,7.32
2023-01-18T23:00:58.979Z,7.37
2023-01-18T23:21:41.149Z,7.54
2023-01-18T23:24:24.522Z,7.56
2023-01-18T23:27:00.675Z,7.45
2023-01-18T23:29:34.194Z,7.44
2023-01-18T23:32:08.011Z,7.46
2023-01-18T23:34:50.464Z,7.48
2023-01-18T23:37:24.124Z,7.48
2023-01-18T23:43:41.300Z,7.43
2023-01-18T23:46:33.154Z,7.38
2023-01-18T23:49:25.468Z,7.36
2023-01-18T23:52:19.587Z,7.28
2023-01-18T23:54:50.823Z,7.26
2023-01-18T23:57:19.181Z,7.27
2023-01-18T23:59:48.100Z,7.28
